sensor_id;sensor_type;location;lat;lon;timestamp;pressure;altitude;pressure_sealevel;temperature;humidity
13478;BME280;12598;62.382;17.344;2023-02-08T00:00:14;102754.22;;;16.91;23.73
13478;BME280;12598;62.382;17.344;2023-02-08T00:01:20;102761.47;;;16.89;23.70
13478;BME280;12598;62.382;17.344;2023-02-08T00:02:22;102764.91;;;16.91;23.58
13478;BME280;12598;62.382;17.344;2023-02-08T00:03:24;102762.25;;;16.91;23.99
13478;BME280;12598;62.382;17.344;2023-02-08T00:04:28;102759.56;;;16.91;23.36
13478;BME280;12598;62.382;17.344;2023-02-08T00:05:30;102760.53;;;16.90;23.75
13478;BME280;12598;62.382;17.344;2023-02-08T00:06:32;102767.69;;;16.90;23.65
13478;BME280;12598;62.382;17.344;2023-02-08T00:07:33;102761.47;;;16.89;23.53
13478;BME280;12598;62.382;17.344;2023-02-08T00:08:36;102755.28;;;16.89;23.99
13478;BME280;12598;62.382;17.344;2023-02-08T00:09:38;102738.00;;;16.80;23.69
13478;BME280;12598;62.382;17.344;2023-02-08T00:10:40;102732.06;;;16.75;23.83
13478;BME280;12598;62.382;17.344;2023-02-08T00:11:43;102759.75;;;16.88;23.79
13478;BME280;12598;62.382;17.344;2023-02-08T00:12:44;102740.84;;;16.77;23.86
13478;BME280;12598;62.382;17.344;2023-02-08T00:13:46;102760.72;;;16.87;23.85
13478;BME280;12598;62.382;17.344;2023-02-08T00:14:48;102756.31;;;16.86;23.83
13478;BME280;12598;62.382;17.344;2023-02-08T00:15:52;102760.81;;;16.86;23.80
13478;BME280;12598;62.382;17.344;2023-02-08T00:16:54;102752.69;;;16.87;23.81
13478;BME280;12598;62.382;17.344;2023-02-08T00:17:56;102763.38;;;16.87;23.88
13478;BME280;12598;62.382;17.344;2023-02-08T00:18:58;102761.66;;;16.86;23.96
13478;BME280;12598;62.382;17.344;2023-02-08T00:20:00;102755.56;;;16.84;24.21
13478;BME280;12598;62.382;17.344;2023-02-08T00:21:09;102759.94;;;16.85;24.09
13478;BME280;12598;62.382;17.344;2023-02-08T00:22:11;102762.44;;;16.88;23.98
13478;BME280;12598;62.382;17.344;2023-02-08T00:23:13;102766.06;;;16.87;24.15
13478;BME280;12598;62.382;17.344;2023-02-08T00:24:15;102761.66;;;16.86;23.80
13478;BME280;12598;62.382;17.344;2023-02-08T00:25:17;102759.09;;;16.85;24.00
13478;BME280;12598;62.382;17.344;2023-02-08T00:26:19;102757.28;;;16.85;24.00
13478;BME280;12598;62.382;17.344;2023-02-08T00:27:21;102759.09;;;16.85;23.85
13478;BME280;12598;62.382;17.344;2023-02-08T00:28:23;102744.09;;;16.82;23.87
13478;BME280;12598;62.382;17.344;2023-02-08T00:29:25;102750.31;;;16.83;23.80
13478;BME280;12598;62.382;17.344;2023-02-08T00:30:27;102756.50;;;16.83;23.82
13478;BME280;12598;62.382;17.344;2023-02-08T00:31:29;102753.00;;;16.83;24.02
13478;BME280;12598;62.382;17.344;2023-02-08T00:32:31;102743.16;;;16.83;23.96
13478;BME280;12598;62.382;17.344;2023-02-08T00:33:33;102743.25;;;16.82;23.91
13478;BME280;12598;62.382;17.344;2023-02-08T00:34:36;102744.09;;;16.82;23.98
13478;BME280;12598;62.382;17.344;2023-02-08T00:35:38;102726.91;;;16.72;24.05
13478;BME280;12598;62.382;17.344;2023-02-08T00:36:39;102742.38;;;16.81;24.17
13478;BME280;12598;62.382;17.344;2023-02-08T00:37:42;102740.66;;;16.80;24.02
13478;BME280;12598;62.382;17.344;2023-02-08T00:38:43;102750.41;;;16.81;23.78
13478;BME280;12598;62.382;17.344;2023-02-08T00:39:45;102744.22;;;16.81;23.94
13478;BME280;12598;62.382;17.344;2023-02-08T00:40:47;102751.34;;;16.80;23.61
13478;BME280;12598;62.382;17.344;2023-02-08T00:41:51;102733.97;;;16.73;24.09
13478;BME280;12598;62.382;17.344;2023-02-08T00:42:53;102741.88;;;16.75;23.76
13478;BME280;12598;62.382;17.344;2023-02-08T00:43:55;102751.34;;;16.80;24.11
13478;BME280;12598;62.382;17.344;2023-02-08T00:44:56;102754.91;;;16.81;23.83
13478;BME280;12598;62.382;17.344;2023-02-08T00:45:59;102748.69;;;16.80;23.91
13478;BME280;12598;62.382;17.344;2023-02-08T00:47:01;102745.16;;;16.80;24.16
13478;BME280;12598;62.382;17.344;2023-02-08T00:48:03;102735.88;;;16.71;23.88
13478;BME280;12598;62.382;17.344;2023-02-08T00:49:05;102749.63;;;16.79;24.01
13478;BME280;12598;62.382;17.344;2023-02-08T00:50:08;102731.38;;;16.72;23.80
13478;BME280;12598;62.382;17.344;2023-02-08T00:51:12;102747.91;;;16.78;23.88
13478;BME280;12598;62.382;17.344;2023-02-08T00:52:15;102744.28;;;16.79;24.16
13478;BME280;12598;62.382;17.344;2023-02-08T00:53:17;102740.66;;;16.80;23.86
13478;BME280;12598;62.382;17.344;2023-02-08T00:54:20;102745.25;;;16.78;24.15
13478;BME280;12598;62.382;17.344;2023-02-08T00:55:22;102741.69;;;16.78;23.76
13478;BME280;12598;62.382;17.344;2023-02-08T00:56:24;102741.88;;;16.75;23.88
13478;BME280;12598;62.382;17.344;2023-02-08T00:57:25;102746.19;;;16.77;24.04
13478;BME280;12598;62.382;17.344;2023-02-08T00:58:27;102747.13;;;16.76;23.78
13478;BME280;12598;62.382;17.344;2023-02-08T00:59:29;102739.13;;;16.76;24.12
13478;BME280;12598;62.382;17.344;2023-02-08T01:00:31;102744.47;;;16.76;23.99
13478;BME280;12598;62.382;17.344;2023-02-08T01:01:33;102737.41;;;16.75;24.04
13478;BME280;12598;62.382;17.344;2023-02-08T01:02:37;102736.53;;;16.75;24.11
13478;BME280;12598;62.382;17.344;2023-02-08T01:03:41;102732.06;;;16.75;23.95
13478;BME280;12598;62.382;17.344;2023-02-08T01:04:43;102738.25;;;16.76;24.07
13478;BME280;12598;62.382;17.344;2023-02-08T01:05:46;102730.16;;;16.77;24.12
13478;BME280;12598;62.382;17.344;2023-02-08T01:06:48;102730.22;;;16.76;24.05
13478;BME280;12598;62.382;17.344;2023-02-08T01:07:50;102720.78;;;16.70;24.05
13478;BME280;12598;62.382;17.344;2023-02-08T01:08:52;102724.03;;;16.75;24.08
13478;BME280;12598;62.382;17.344;2023-02-08T01:09:56;102727.84;;;16.71;23.88
13478;BME280;12598;62.382;17.344;2023-02-08T01:11:09;102719.72;;;16.73;24.19
13478;BME280;12598;62.382;17.344;2023-02-08T01:12:11;102725.78;;;16.76;23.56
13478;BME280;12598;62.382;17.344;2023-02-08T01:13:13;102721.38;;;16.75;23.72
13478;BME280;12598;62.382;17.344;2023-02-08T01:14:15;102711.66;;;16.74;23.87
13478;BME280;12598;62.382;17.344;2023-02-08T01:15:17;102715.28;;;16.73;23.65
13478;BME280;12598;62.382;17.344;2023-02-08T01:16:21;102705.53;;;16.72;24.03
13478;BME280;12598;62.382;17.344;2023-02-08T01:17:24;102706.38;;;16.73;23.65
13478;BME280;12598;62.382;17.344;2023-02-08T01:18:28;102693.50;;;16.65;24.00
13478;BME280;12598;62.382;17.344;2023-02-08T01:19:30;102709.94;;;16.73;23.94
13478;BME280;12598;62.382;17.344;2023-02-08T01:20:34;102706.50;;;16.71;23.78
13478;BME280;12598;62.382;17.344;2023-02-08T01:21:39;102686.44;;;16.64;23.79
13478;BME280;12598;62.382;17.344;2023-02-08T01:22:41;102701.91;;;16.73;23.77
13478;BME280;12598;62.382;17.344;2023-02-08T01:23:44;102695.81;;;16.71;23.58
13478;BME280;12598;62.382;17.344;2023-02-08T01:24:46;102687.78;;;16.71;23.80
13478;BME280;12598;62.382;17.344;2023-02-08T01:25:48;102699.31;;;16.72;23.98
13478;BME280;12598;62.382;17.344;2023-02-08T01:26:51;102680.16;;;16.65;23.69
13478;BME280;12598;62.382;17.344;2023-02-08T01:27:52;102694.09;;;16.70;23.99
13478;BME280;12598;62.382;17.344;2023-02-08T01:28:58;102698.47;;;16.71;24.00
13478;BME280;12598;62.382;17.344;2023-02-08T01:30:00;102691.41;;;16.70;23.67
13478;BME280;12598;62.382;17.344;2023-02-08T01:31:06;102686.25;;;16.67;23.70
13478;BME280;12598;62.382;17.344;2023-02-08T01:32:09;102688.75;;;16.70;23.76
13478;BME280;12598;62.382;17.344;2023-02-08T01:33:10;102692.44;;;16.68;23.80
13478;BME280;12598;62.382;17.344;2023-02-08T01:34:12;102683.00;;;16.62;23.81
13478;BME280;12598;62.382;17.344;2023-02-08T01:35:16;102696.94;;;16.67;23.60
13478;BME280;12598;62.382;17.344;2023-02-08T01:36:18;102708.56;;;16.66;23.79
13478;BME280;12598;62.382;17.344;2023-02-08T01:37:20;102708.56;;;16.66;23.75
13478;BME280;12598;62.382;17.344;2023-02-08T01:38:22;102695.59;;;16.60;23.62
13478;BME280;12598;62.382;17.344;2023-02-08T01:39:24;102704.38;;;16.62;23.78
13478;BME280;12598;62.382;17.344;2023-02-08T01:40:26;102710.38;;;16.66;23.70
13478;BME280;12598;62.382;17.344;2023-02-08T01:41:31;102714.88;;;16.65;23.67
13478;BME280;12598;62.382;17.344;2023-02-08T01:42:33;102714.88;;;16.65;24.00
13478;BME280;12598;62.382;17.344;2023-02-08T01:45:22;102717.00;;;16.74;23.85
13478;BME280;12598;62.382;17.344;2023-02-08T01:46:24;102715.28;;;16.73;23.91
13478;BME280;12598;62.382;17.344;2023-02-08T01:47:26;102705.13;;;16.64;23.49
13478;BME280;12598;62.382;17.344;2023-02-08T01:48:33;102711.25;;;16.66;23.96
13478;BME280;12598;62.382;17.344;2023-02-08T01:49:36;102715.72;;;16.66;23.49
13478;BME280;12598;62.382;17.344;2023-02-08T01:50:49;102712.19;;;16.65;23.71
13478;BME280;12598;62.382;17.344;2023-02-08T01:52:02;102717.44;;;16.67;23.64
13478;BME280;12598;62.382;17.344;2023-02-08T01:53:05;102720.03;;;16.68;23.48
13478;BME280;12598;62.382;17.344;2023-02-08T01:54:09;102715.81;;;16.64;23.99
13478;BME280;12598;62.382;17.344;2023-02-08T01:55:34;102720.88;;;16.69;24.20
13478;BME280;12598;62.382;17.344;2023-02-08T01:56:41;102704.38;;;16.62;23.54
13478;BME280;12598;62.382;17.344;2023-02-08T01:57:48;102718.31;;;16.67;23.71
13478;BME280;12598;62.382;17.344;2023-02-08T01:58:55;102709.53;;;16.65;23.70
13478;BME280;12598;62.382;17.344;2023-02-08T02:00:22;102715.81;;;16.64;23.98
13478;BME280;12598;62.382;17.344;2023-02-08T02:01:24;102724.50;;;16.68;23.42
13478;BME280;12598;62.382;17.344;2023-02-08T02:02:27;102735.47;;;16.63;23.61
13478;BME280;12598;62.382;17.344;2023-02-08T02:03:29;102713.78;;;16.54;23.81
13478;BME280;12598;62.382;17.344;2023-02-08T02:04:31;102740.88;;;16.62;23.56
13478;BME280;12598;62.382;17.344;2023-02-08T02:05:41;102738.22;;;16.62;23.97
13478;BME280;12598;62.382;17.344;2023-02-08T02:06:49;102754.25;;;16.62;23.74
13478;BME280;12598;62.382;17.344;2023-02-08T02:07:53;102756.91;;;16.62;23.82
13478;BME280;12598;62.382;17.344;2023-02-08T02:10:32;102757.59;;;16.65;23.71
13478;BME280;12598;62.382;17.344;2023-02-08T02:11:35;102769.13;;;16.66;23.69
13478;BME280;12598;62.382;17.344;2023-02-08T02:12:38;102760.53;;;16.61;23.89
13478;BME280;12598;62.382;17.344;2023-02-08T02:13:41;102752.78;;;16.56;23.84
13478;BME280;12598;62.382;17.344;2023-02-08T02:14:44;102760.72;;;16.58;23.73
13478;BME280;12598;62.382;17.344;2023-02-08T02:15:47;102754.50;;;16.57;23.92
13478;BME280;12598;62.382;17.344;2023-02-08T02:16:49;102738.84;;;16.51;23.69
13478;BME280;12598;62.382;17.344;2023-02-08T02:17:53;102733.09;;;16.43;23.55
13478;BME280;12598;62.382;17.344;2023-02-08T02:18:55;102748.56;;;16.52;23.78
13478;BME280;12598;62.382;17.344;2023-02-08T02:20:08;102753.66;;;16.57;23.67
13478;BME280;12598;62.382;17.344;2023-02-08T02:21:34;102749.66;;;16.64;23.81
13478;BME280;12598;62.382;17.344;2023-02-08T02:23:13;102752.09;;;16.68;23.68
13478;BME280;12598;62.382;17.344;2023-02-08T02:24:48;102753.69;;;16.71;23.67
13478;BME280;12598;62.382;17.344;2023-02-08T02:27:56;102750.38;;;16.67;23.67
13478;BME280;12598;62.382;17.344;2023-02-08T02:40:42;102738.31;;;16.60;23.61
13478;BME280;12598;62.382;17.344;2023-02-08T02:43:54;102741.59;;;16.65;23.25
13478;BME280;12598;62.382;17.344;2023-02-08T02:46:24;102745.56;;;16.58;23.42
13478;BME280;12598;62.382;17.344;2023-02-08T02:48:01;102745.72;;;16.55;23.55
13478;BME280;12598;62.382;17.344;2023-02-08T02:54:10;102736.34;;;16.48;23.64
13478;BME280;12598;62.382;17.344;2023-02-08T02:55:16;102730.16;;;16.48;23.52
13478;BME280;12598;62.382;17.344;2023-02-08T02:56:28;102729.22;;;16.49;23.50
13478;BME280;12598;62.382;17.344;2023-02-08T02:57:31;102719.84;;;16.42;23.77
13478;BME280;12598;62.382;17.344;2023-02-08T02:58:34;102711.16;;;16.38;23.97
13478;BME280;12598;62.382;17.344;2023-02-08T02:59:38;102726.81;;;16.44;23.81
13478;BME280;12598;62.382;17.344;2023-02-08T03:00:41;102726.81;;;16.44;23.62
13478;BME280;12598;62.382;17.344;2023-02-08T03:01:44;102723.38;;;16.42;23.89
13478;BME280;12598;62.382;17.344;2023-02-08T03:02:47;102711.75;;;16.43;23.93
13478;BME280;12598;62.382;17.344;2023-02-08T03:03:49;102708.28;;;16.41;23.64
13478;BME280;12598;62.382;17.344;2023-02-08T03:04:55;102700.28;;;16.41;23.71
13478;BME280;12598;62.382;17.344;2023-02-08T03:06:04;102695.81;;;16.42;23.58
13478;BME280;12598;62.382;17.344;2023-02-08T03:07:23;102698.19;;;16.46;23.82
13478;BME280;12598;62.382;17.344;2023-02-08T03:08:53;102696.13;;;16.51;23.68
13478;BME280;12598;62.382;17.344;2023-02-08T03:10:20;102706.53;;;16.56;23.57
13478;BME280;12598;62.382;17.344;2023-02-08T03:11:32;102705.84;;;16.52;23.50
13478;BME280;12598;62.382;17.344;2023-02-08T03:12:54;102705.84;;;16.52;23.50
13478;BME280;12598;62.382;17.344;2023-02-08T03:19:24;102722.06;;;16.49;23.73
13478;BME280;12598;62.382;17.344;2023-02-08T03:20:37;102715.09;;;16.47;23.29
13478;BME280;12598;62.382;17.344;2023-02-08T03:22:10;102712.50;;;16.45;23.53
13478;BME280;12598;62.382;17.344;2023-02-08T03:23:14;102689.53;;;16.43;23.46
13478;BME280;12598;62.382;17.344;2023-02-08T03:24:39;102692.59;;;16.51;23.48
13478;BME280;12598;62.382;17.344;2023-02-08T03:26:02;102675.69;;;16.50;23.52
13478;BME280;12598;62.382;17.344;2023-02-08T03:27:15;102665.31;;;16.46;23.47
13478;BME280;12598;62.382;17.344;2023-02-08T03:28:27;102660.81;;;16.46;23.56
13478;BME280;12598;62.382;17.344;2023-02-08T03:32:06;102643.00;;;16.47;23.49
13478;BME280;12598;62.382;17.344;2023-02-08T03:34:10;102640.41;;;16.45;23.32
13478;BME280;12598;62.382;17.344;2023-02-08T03:35:27;102648.22;;;16.48;23.29
13478;BME280;12598;62.382;17.344;2023-02-08T03:37:44;102631.75;;;16.42;23.52
13478;BME280;12598;62.382;17.344;2023-02-08T03:38:49;102624.75;;;16.39;23.53
13478;BME280;12598;62.382;17.344;2023-02-08T03:39:57;102608.06;;;16.36;23.31
13478;BME280;12598;62.382;17.344;2023-02-08T03:41:02;102608.94;;;16.36;23.34
13478;BME280;12598;62.382;17.344;2023-02-08T03:42:10;102590.47;;;16.32;23.46
13478;BME280;12598;62.382;17.344;2023-02-08T03:43:18;102595.56;;;16.36;23.34
13478;BME280;12598;62.382;17.344;2023-02-08T03:44:38;102601.75;;;16.37;23.33
13478;BME280;12598;62.382;17.344;2023-02-08T03:45:46;102605.22;;;16.39;23.56
13478;BME280;12598;62.382;17.344;2023-02-08T03:46:54;102621.25;;;16.39;23.50
13478;BME280;12598;62.382;17.344;2023-02-08T03:47:59;102629.34;;;16.37;23.64
13478;BME280;12598;62.382;17.344;2023-02-08T03:49:07;102631.25;;;16.35;23.61
13478;BME280;12598;62.382;17.344;2023-02-08T03:50:13;102607.63;;;16.28;23.24
13478;BME280;12598;62.382;17.344;2023-02-08T03:51:19;102636.56;;;16.35;23.40
13478;BME280;12598;62.382;17.344;2023-02-08T03:52:23;102633.97;;;16.34;23.61
13478;BME280;12598;62.382;17.344;2023-02-08T03:53:27;102638.47;;;16.33;23.59
13478;BME280;12598;62.382;17.344;2023-02-08T03:54:36;102635.84;;;16.32;23.39
13478;BME280;12598;62.382;17.344;2023-02-08T03:55:41;102640.19;;;16.34;23.33
13478;BME280;12598;62.382;17.344;2023-02-08T03:57:12;102628.38;;;16.38;23.52
13478;BME280;12598;62.382;17.344;2023-02-08T03:58:21;102622.09;;;16.39;23.23
13478;BME280;12598;62.382;17.344;2023-02-08T03:59:26;102614.19;;;16.38;23.47
13478;BME280;12598;62.382;17.344;2023-02-08T04:00:35;102611.59;;;16.36;23.66
13478;BME280;12598;62.382;17.344;2023-02-08T04:01:44;102608.94;;;16.36;23.35
13478;BME280;12598;62.382;17.344;2023-02-08T04:02:55;102603.59;;;16.36;23.23
13478;BME280;12598;62.382;17.344;2023-02-08T04:03:59;102591.19;;;16.35;23.40
13478;BME280;12598;62.382;17.344;2023-02-08T04:05:02;102580.59;;;16.34;23.03
13478;BME280;12598;62.382;17.344;2023-02-08T04:06:05;102561.22;;;16.30;23.33
13478;BME280;12598;62.382;17.344;2023-02-08T04:07:07;102567.41;;;16.31;23.36
13478;BME280;12598;62.382;17.344;2023-02-08T04:08:09;102553.59;;;16.25;23.40
13478;BME280;12598;62.382;17.344;2023-02-08T04:09:11;102571.91;;;16.30;23.59
13478;BME280;12598;62.382;17.344;2023-02-08T04:10:13;102574.56;;;16.30;23.17
13478;BME280;12598;62.382;17.344;2023-02-08T04:11:15;102585.31;;;16.29;23.29
13478;BME280;12598;62.382;17.344;2023-02-08T04:12:17;102573.41;;;16.21;23.35
13478;BME280;12598;62.382;17.344;2023-02-08T04:13:19;102599.53;;;16.29;23.48
13478;BME280;12598;62.382;17.344;2023-02-08T04:14:21;102596.88;;;16.29;23.27
13478;BME280;12598;62.382;17.344;2023-02-08T04:15:23;102606.59;;;16.30;23.67
13478;BME280;12598;62.382;17.344;2023-02-08T04:16:27;102601.69;;;16.23;23.42
13478;BME280;12598;62.382;17.344;2023-02-08T04:17:29;102580.31;;;16.09;23.25
13478;BME280;12598;62.382;17.344;2023-02-08T04:18:32;102620.03;;;16.29;23.33
13478;BME280;12598;62.382;17.344;2023-02-08T04:19:34;102635.97;;;16.30;23.22
13478;BME280;12598;62.382;17.344;2023-02-08T04:20:36;102632.59;;;16.27;23.63
13478;BME280;12598;62.382;17.344;2023-02-08T04:21:38;102643.09;;;16.30;23.20
13478;BME280;12598;62.382;17.344;2023-02-08T04:22:40;102645.75;;;16.30;23.38
13478;BME280;12598;62.382;17.344;2023-02-08T04:23:42;102655.59;;;16.29;23.65
13478;BME280;12598;62.382;17.344;2023-02-08T04:24:44;102656.56;;;16.28;23.00
13478;BME280;12598;62.382;17.344;2023-02-08T04:25:45;102653.88;;;16.28;23.25
13478;BME280;12598;62.382;17.344;2023-02-08T04:26:47;102641.38;;;16.29;23.59
13478;BME280;12598;62.382;17.344;2023-02-08T04:27:49;102650.25;;;16.29;23.38
13478;BME280;12598;62.382;17.344;2023-02-08T04:28:51;102647.59;;;16.29;23.47
13478;BME280;12598;62.382;17.344;2023-02-08T04:29:53;102638.69;;;16.29;23.49
13478;BME280;12598;62.382;17.344;2023-02-08T04:30:55;102642.31;;;16.28;23.54
13478;BME280;12598;62.382;17.344;2023-02-08T04:32:00;102615.03;;;16.23;23.22
13478;BME280;12598;62.382;17.344;2023-02-08T04:33:02;102625.34;;;16.29;23.59
13478;BME280;12598;62.382;17.344;2023-02-08T04:34:04;102625.34;;;16.29;23.21
13478;BME280;12598;62.382;17.344;2023-02-08T04:35:06;102623.63;;;16.28;23.18
13478;BME280;12598;62.382;17.344;2023-02-08T04:36:08;102623.63;;;16.28;23.40
13478;BME280;12598;62.382;17.344;2023-02-08T04:37:10;102618.41;;;16.27;23.48
13478;BME280;12598;62.382;17.344;2023-02-08T04:38:12;102619.19;;;16.28;23.42
13478;BME280;12598;62.382;17.344;2023-02-08T04:39:14;102600.28;;;16.18;23.31
13478;BME280;12598;62.382;17.344;2023-02-08T04:40:16;102582.53;;;16.17;23.23
13478;BME280;12598;62.382;17.344;2023-02-08T04:41:18;102616.59;;;16.27;23.58
13478;BME280;12598;62.382;17.344;2023-02-08T04:42:20;102626.41;;;16.27;23.49
13478;BME280;12598;62.382;17.344;2023-02-08T04:43:22;102622.78;;;16.27;23.10
13478;BME280;12598;62.382;17.344;2023-02-08T04:44:23;102621.25;;;16.24;23.15
13478;BME280;12598;62.382;17.344;2023-02-08T04:45:25;102621.06;;;16.27;23.41
13478;BME280;12598;62.382;17.344;2023-02-08T04:46:28;102626.41;;;16.27;23.26
13478;BME280;12598;62.382;17.344;2023-02-08T04:47:30;102630.81;;;16.27;23.06
13478;BME280;12598;62.382;17.344;2023-02-08T04:48:32;102626.41;;;16.27;23.05
13478;BME280;12598;62.382;17.344;2023-02-08T04:49:34;102627.56;;;16.23;23.34
13478;BME280;12598;62.382;17.344;2023-02-08T04:50:36;102642.44;;;16.27;23.45
13478;BME280;12598;62.382;17.344;2023-02-08T04:51:37;102648.63;;;16.27;23.03
13478;BME280;12598;62.382;17.344;2023-02-08T04:52:39;102640.72;;;16.26;23.24
13478;BME280;12598;62.382;17.344;2023-02-08T04:53:41;102617.41;;;16.14;23.53
13478;BME280;12598;62.382;17.344;2023-02-08T04:54:43;102632.72;;;16.26;23.05
13478;BME280;12598;62.382;17.344;2023-02-08T04:55:45;102624.88;;;16.23;23.08
13478;BME280;12598;62.382;17.344;2023-02-08T04:56:47;102626.59;;;16.24;23.23
13478;BME280;12598;62.382;17.344;2023-02-08T04:57:49;102627.44;;;16.24;23.45
13478;BME280;12598;62.382;17.344;2023-02-08T04:58:51;102628.31;;;16.25;23.57
13478;BME280;12598;62.382;17.344;2023-02-08T04:59:52;102614.56;;;16.17;23.47
13478;BME280;12598;62.382;17.344;2023-02-08T05:00:54;102619.44;;;16.24;23.14
13478;BME280;12598;62.382;17.344;2023-02-08T05:01:56;102626.59;;;16.24;22.83
13478;BME280;12598;62.382;17.344;2023-02-08T05:02:58;102618.59;;;16.24;23.08
13478;BME280;12598;62.382;17.344;2023-02-08T05:04:00;102614.22;;;16.23;23.37
13478;BME280;12598;62.382;17.344;2023-02-08T05:05:02;102608.75;;;16.24;23.46
13478;BME280;12598;62.382;17.344;2023-02-08T05:06:04;102598.19;;;16.23;23.29
13478;BME280;12598;62.382;17.344;2023-02-08T05:07:06;102607.91;;;16.24;23.32
13478;BME280;12598;62.382;17.344;2023-02-08T05:08:08;102593.31;;;16.15;22.92
13478;BME280;12598;62.382;17.344;2023-02-08T05:09:10;102605.63;;;16.18;23.09
13478;BME280;12598;62.382;17.344;2023-02-08T05:10:12;102614.22;;;16.23;23.36
13478;BME280;12598;62.382;17.344;2023-02-08T05:11:20;102608.00;;;16.22;23.08
13478;BME280;12598;62.382;17.344;2023-02-08T05:12:22;102608.88;;;16.23;23.48
13478;BME280;12598;62.382;17.344;2023-02-08T05:13:24;102607.16;;;16.22;23.18
13478;BME280;12598;62.382;17.344;2023-02-08T05:14:26;102616.00;;;16.22;23.16
13478;BME280;12598;62.382;17.344;2023-02-08T05:15:28;102617.81;;;16.22;23.25
13478;BME280;12598;62.382;17.344;2023-02-08T05:16:30;102633.84;;;16.22;23.27
13478;BME280;12598;62.382;17.344;2023-02-08T05:17:32;102609.31;;;16.15;23.16
13478;BME280;12598;62.382;17.344;2023-02-08T05:18:34;102624.00;;;16.22;23.06
13478;BME280;12598;62.382;17.344;2023-02-08T05:19:35;102616.09;;;16.21;23.19
13478;BME280;12598;62.382;17.344;2023-02-08T05:20:37;102609.06;;;16.20;23.23
13478;BME280;12598;62.382;17.344;2023-02-08T05:21:40;102594.13;;;16.16;22.98
13478;BME280;12598;62.382;17.344;2023-02-08T05:22:41;102601.03;;;16.20;23.30
13478;BME280;12598;62.382;17.344;2023-02-08T05:23:43;102593.03;;;16.20;22.84
13478;BME280;12598;62.382;17.344;2023-02-08T05:24:47;102602.84;;;16.19;23.00
13478;BME280;12598;62.382;17.344;2023-02-08T05:25:49;102590.63;;;16.15;23.07
13478;BME280;12598;62.382;17.344;2023-02-08T05:26:51;102595.72;;;16.20;23.24
13478;BME280;12598;62.382;17.344;2023-02-08T05:27:53;102591.31;;;16.19;23.04
13478;BME280;12598;62.382;17.344;2023-02-08T05:28:55;102590.81;;;16.12;23.09
13478;BME280;12598;62.382;17.344;2023-02-08T05:29:56;102600.28;;;16.18;22.82
13478;BME280;12598;62.382;17.344;2023-02-08T05:31:08;102598.56;;;16.17;23.04
13478;BME280;12598;62.382;17.344;2023-02-08T05:32:10;102606.38;;;16.20;23.01
13478;BME280;12598;62.382;17.344;2023-02-08T05:33:13;102596.66;;;16.19;23.17
13478;BME280;12598;62.382;17.344;2023-02-08T05:34:15;102576.41;;;16.15;23.23
13478;BME280;12598;62.382;17.344;2023-02-08T05:35:17;102573.09;;;16.11;23.00
13478;BME280;12598;62.382;17.344;2023-02-08T05:36:19;102568.00;;;16.07;23.00
13478;BME280;12598;62.382;17.344;2023-02-08T05:37:21;102578.06;;;16.17;23.05
13478;BME280;12598;62.382;17.344;2023-02-08T05:38:23;102580.78;;;16.16;22.95
13478;BME280;12598;62.382;17.344;2023-02-08T05:39:25;102573.66;;;16.16;22.83
13478;BME280;12598;62.382;17.344;2023-02-08T05:40:27;102569.28;;;16.15;22.81
13478;BME280;12598;62.382;17.344;2023-02-08T05:41:29;102574.69;;;16.14;23.21
13478;BME280;12598;62.382;17.344;2023-02-08T05:42:31;102570.13;;;16.16;23.18
13478;BME280;12598;62.382;17.344;2023-02-08T05:43:33;102572.22;;;16.11;23.22
13478;BME280;12598;62.382;17.344;2023-02-08T05:44:35;102560.38;;;16.01;23.16
13478;BME280;12598;62.382;17.344;2023-02-08T05:45:36;102557.13;;;15.96;23.21
13478;BME280;12598;62.382;17.344;2023-02-08T05:46:38;102570.69;;;16.07;22.85
13478;BME280;12598;62.382;17.344;2023-02-08T05:47:40;102583.66;;;16.13;22.81
13478;BME280;12598;62.382;17.344;2023-02-08T05:48:42;102543.19;;;15.91;23.23
13478;BME280;12598;62.382;17.344;2023-02-08T05:49:44;102589.75;;;16.15;23.13
13478;BME280;12598;62.382;17.344;2023-02-08T05:50:46;102593.38;;;16.14;23.04
13478;BME280;12598;62.382;17.344;2023-02-08T05:51:48;102586.31;;;16.13;22.92
13478;BME280;12598;62.382;17.344;2023-02-08T05:52:51;102592.53;;;16.13;22.91
13478;BME280;12598;62.382;17.344;2023-02-08T05:53:53;102583.06;;;16.08;23.21
13478;BME280;12598;62.382;17.344;2023-02-08T05:54:54;102583.00;;;16.09;23.03
13478;BME280;12598;62.382;17.344;2023-02-08T05:55:57;102581.94;;;16.12;23.21
13478;BME280;12598;62.382;17.344;2023-02-08T05:56:59;102581.94;;;16.12;23.22
13478;BME280;12598;62.382;17.344;2023-02-08T05:58:01;102581.94;;;16.12;22.88
13478;BME280;12598;62.382;17.344;2023-02-08T05:59:02;102587.28;;;16.12;22.95
13478;BME280;12598;62.382;17.344;2023-02-08T06:00:05;102575.94;;;16.08;22.65
13478;BME280;12598;62.382;17.344;2023-02-08T06:01:16;102581.84;;;16.13;23.04
13478;BME280;12598;62.382;17.344;2023-02-08T06:02:18;102579.25;;;16.12;22.93
13478;BME280;12598;62.382;17.344;2023-02-08T06:03:20;102579.19;;;16.13;23.05
13478;BME280;12598;62.382;17.344;2023-02-08T06:04:22;102581.09;;;16.11;23.08
13478;BME280;12598;62.382;17.344;2023-02-08T06:05:24;102565.53;;;16.04;22.86
13478;BME280;12598;62.382;17.344;2023-02-08T06:06:26;102578.69;;;16.07;23.06
13478;BME280;12598;62.382;17.344;2023-02-08T06:07:28;102575.84;;;16.10;22.69
13478;BME280;12598;62.382;17.344;2023-02-08T06:08:30;102573.16;;;16.10;22.86